Neon, Kentucky
Current Conditions -  °F | °C
As of 1:15 AM on Sunday 26 Oct 2014 (Local Time) from KLNP Reporting Station
Broken Clouds Broken Clouds  
Wind Chill: 55°   Ceiling: 1700
Heat Index: 55°   Visibility: 10mi
Dew Point: 54°   Wind: 7mph
Humidity: 94%   Direction: 250°WSW
Pressure: 30.01"   Gusts: NA
Location:  37.19°N, 82.71°W
Report Text: KLNP 260515Z AUTO 25006KT 10SM BKN017 13/12 A3001 RMK AO2
Loading
Personal Weather Stations






























Interactive Weather Map
Tropical Storm Tracking
New forecast layout! Learn more

10-Day Weather Forecast

Advertisements
Track Severe Weather on mobile